Time;durP1;ratioP1;P1;durP2;ratioP2;P2;SDS_P1;SDS_P2;PMS_P1;PMS_P2;Temp;Humidity;BMP_temperature;BMP_pressure;BME280_temperature;BME280_humidity;BME280_pressure;Samples;Min_cycle;Max_cycle;Signal;HPM_P1;HPM_P2
2022/11/13 00:00:58;;;;;;;21.57;13.07;;;;;;;9.75;86.05;101784.69;5014844;28;20256;-68
2022/11/13 00:03:29;;;;;;;21.07;12.00;;;;;;;9.64;86.37;101788.13;5021690;28;20211;-65
2022/11/13 00:06:02;;;;;;;20.43;12.43;;;;;;;9.63;86.67;101780.28;5018569;28;20233;-66
2022/11/13 00:08:30;;;;;;;17.20;11.47;;;;;;;9.62;86.66;101779.44;5018474;28;20744;-65
2022/11/13 00:11:03;;;;;;;21.93;12.93;;;;;;;9.61;86.61;101782.19;5017754;28;20236;-66
2022/11/13 00:13:33;;;;;;;16.87;10.83;;;;;;;9.59;86.13;101782.28;5016254;28;21096;-67
2022/11/13 00:16:04;;;;;;;18.73;11.73;;;;;;;9.49;86.66;101773.34;5012154;28;20213;-67
2022/11/13 00:18:35;;;;;;;18.93;12.17;;;;;;;9.41;86.54;101776.50;5013185;28;20212;-66
2022/11/13 00:21:05;;;;;;;15.70;10.37;;;;;;;9.42;86.79;101770.25;5017877;28;20217;-67
2022/11/13 00:23:34;;;;;;;16.23;10.73;;;;;;;9.51;86.27;101776.69;5015606;28;20212;-67
2022/11/13 00:26:06;;;;;;;16.27;9.87;;;;;;;9.48;85.82;101765.50;5018478;28;20232;-67
2022/11/13 00:28:36;;;;;;;17.50;10.77;;;;;;;9.48;85.89;101760.19;5018038;28;20230;-66
2022/11/13 00:31:05;;;;;;;14.93;9.63;;;;;;;9.50;85.19;101759.09;5013843;28;20209;-66
2022/11/13 00:33:33;;;;;;;16.13;10.00;;;;;;;9.49;84.60;101759.25;5015426;28;20212;-66
2022/11/13 00:36:22;;;;;;;16.80;10.53;;;;;;;9.54;84.21;101762.41;5010315;28;20635;-65
2022/11/13 00:38:53;;;;;;;15.33;9.87;;;;;;;9.50;84.04;101760.94;5013960;28;20209;-66
2022/11/13 00:41:22;;;;;;;14.73;9.83;;;;;;;9.52;83.79;101759.00;5010785;28;20206;-66
2022/11/13 00:43:51;;;;;;;15.53;9.23;;;;;;;9.53;83.38;101753.59;5014759;28;20205;-66
2022/11/13 00:46:19;;;;;;;14.50;9.40;;;;;;;9.55;82.96;101750.84;5013971;28;20291;-65
2022/11/13 00:48:47;;;;;;;14.67;9.23;;;;;;;9.43;82.87;101755.22;5013946;28;20214;-65
2022/11/13 00:51:14;;;;;;;13.20;9.27;;;;;;;9.34;83.52;101751.41;5009718;28;20210;-66
2022/11/13 00:53:42;;;;;;;15.33;9.03;;;;;;;9.33;83.51;101751.53;5015898;28;20209;-66
2022/11/13 00:56:10;;;;;;;14.23;9.33;;;;;;;9.25;83.86;101753.88;5009165;28;20201;-65
2022/11/13 00:58:37;;;;;;;17.27;9.80;;;;;;;9.28;84.64;101749.22;5015429;28;20279;-65
2022/11/13 01:01:09;;;;;;;15.23;9.77;;;;;;;9.37;84.27;101750.38;5013901;28;20260;-68
2022/11/13 01:03:38;;;;;;;13.60;9.20;;;;;;;9.49;83.44;101746.00;5015044;28;20205;-66
2022/11/13 01:06:15;;;;;;;16.77;9.57;;;;;;;9.47;83.28;101747.91;5013639;28;20298;-65
2022/11/13 01:08:42;;;;;;;14.23;8.87;;;;;;;9.41;83.60;101754.50;5020361;28;20282;-66
2022/11/13 01:11:12;;;;;;;17.40;8.80;;;;;;;9.36;83.56;101756.59;5017929;28;20249;-65
2022/11/13 01:13:41;;;;;;;15.47;9.40;;;;;;;9.33;83.31;101757.66;5024258;28;20263;-66
2022/11/13 01:16:12;;;;;;;14.10;9.20;;;;;;;9.32;83.37;101755.97;5019339;28;20254;-67
2022/11/13 01:18:41;;;;;;;14.23;9.47;;;;;;;9.28;84.03;101753.66;5028132;28;20715;-66
2022/11/13 01:21:11;;;;;;;19.77;9.30;;;;;;;9.24;84.04;101757.47;5015504;28;20216;-66
2022/11/13 01:23:42;;;;;;;15.83;9.60;;;;;;;9.17;84.26;101756.22;5024050;28;20304;-70
2022/11/13 01:26:11;;;;;;;14.47;9.50;;;;;;;9.13;84.68;101754.75;5018372;28;20279;-65
2022/11/13 01:28:41;;;;;;;15.63;8.47;;;;;;;9.09;84.98;101746.16;5019783;28;20887;-67
2022/11/13 01:31:12;;;;;;;14.07;8.67;;;;;;;8.99;85.14;101751.25;5024462;28;20629;-66
2022/11/13 01:33:39;;;;;;;14.97;8.60;;;;;;;8.98;85.23;101746.91;5026697;28;20224;-66
2022/11/13 01:36:10;;;;;;;12.47;8.20;;;;;;;9.01;85.12;101748.50;5016208;28;20205;-67
2022/11/13 01:38:38;;;;;;;12.53;7.53;;;;;;;9.04;84.87;101750.94;5023658;28;20212;-67
2022/11/13 01:41:07;;;;;;;11.87;7.83;;;;;;;9.04;84.96;101746.50;5026417;28;20212;-67
2022/11/13 01:43:38;;;;;;;12.30;8.00;;;;;;;9.09;84.62;101742.69;5025036;28;20215;-66
2022/11/13 01:46:13;;;;;;;14.77;7.80;;;;;;;9.11;84.23;101740.78;5024484;28;20681;-66
2022/11/13 01:48:45;;;;;;;13.10;8.00;;;;;;;8.98;84.36;101740.78;5012835;28;20244;-66
2022/11/13 01:51:16;;;;;;;10.87;6.90;;;;;;;9.01;84.52;101735.28;5017570;28;20233;-66
2022/11/13 01:53:47;;;;;;;12.33;7.43;;;;;;;8.99;84.04;101734.53;5010144;28;20219;-67
2022/11/13 01:56:15;;;;;;;11.87;8.33;;;;;;;8.99;84.21;101729.25;5011071;28;20216;-67
2022/11/13 01:58:48;;;;;;;13.23;8.13;;;;;;;9.06;84.12;101733.13;5006035;28;20213;-67
2022/11/13 02:01:17;;;;;;;11.83;7.47;;;;;;;8.97;83.91;101726.69;5012286;28;20559;-67
2022/11/13 02:03:45;;;;;;;14.30;8.20;;;;;;;8.92;84.50;101720.03;5012941;28;20294;-67
2022/11/13 02:06:13;;;;;;;12.53;7.97;;;;;;;8.91;84.50;101724.47;5009165;28;20884;-67
2022/11/13 02:08:43;;;;;;;13.07;7.77;;;;;;;8.90;84.55;101720.16;5015117;28;20233;-67
2022/11/13 02:11:12;;;;;;;12.47;8.40;;;;;;;8.99;84.51;101706.28;5017167;28;20294;-66
2022/11/13 02:13:39;;;;;;;10.97;7.37;;;;;;;9.01;83.70;101709.66;5009788;28;20283;-66
2022/11/13 02:16:10;;;;;;;16.23;7.27;;;;;;;9.06;83.06;101704.03;5010844;28;20207;-65
2022/11/13 02:18:40;;;;;;;10.80;7.30;;;;;;;8.99;82.58;101700.13;5020677;28;20204;-64
2022/11/13 02:21:20;;;;;;;12.33;7.60;;;;;;;9.00;83.07;101700.03;5013188;28;20266;-64
2022/11/13 02:23:52;;;;;;;11.77;7.43;;;;;;;8.92;83.72;101694.44;5010185;28;20196;-65
2022/11/13 02:26:25;;;;;;;12.27;7.87;;;;;;;8.93;83.64;101692.63;5013793;28;20224;-65
2022/11/13 02:28:53;;;;;;;11.10;7.30;;;;;;;8.82;83.77;101689.91;5017778;28;20211;-65
2022/11/13 02:31:20;;;;;;;12.63;6.80;;;;;;;8.78;83.45;101696.38;5017850;28;20211;-66
2022/11/13 02:33:48;;;;;;;9.63;5.70;;;;;;;8.79;83.32;101690.13;5018286;28;20287;-65
2022/11/13 02:36:16;;;;;;;11.50;7.57;;;;;;;8.84;83.06;101685.34;5016057;28;20209;-66
2022/11/13 02:38:45;;;;;;;12.13;6.70;;;;;;;8.91;82.86;101691.88;5016823;28;20304;-66
2022/11/13 02:41:13;;;;;;;10.97;6.63;;;;;;;8.98;82.06;101688.69;5012550;28;20215;-66
2022/11/13 02:43:45;;;;;;;10.90;7.13;;;;;;;8.90;82.43;101687.56;5015120;28;20746;-65
2022/11/13 02:46:12;;;;;;;12.73;7.70;;;;;;;8.86;83.00;101684.28;5011452;28;20243;-66
2022/11/13 02:48:40;;;;;;;11.87;7.00;;;;;;;8.77;83.23;101678.81;5012517;28;21264;-65
2022/11/13 02:51:08;;;;;;;13.77;7.63;;;;;;;8.84;83.82;101683.56;5013137;28;20212;-65
2022/11/13 02:53:36;;;;;;;12.20;7.87;;;;;;;8.89;83.56;101676.13;5011865;28;20243;-64
2022/11/13 02:56:04;;;;;;;13.07;7.37;;;;;;;8.92;83.73;101677.72;5009768;28;20204;-65
2022/11/13 02:58:32;;;;;;;11.67;7.47;;;;;;;8.88;83.79;101681.53;5012021;28;20204;-66
2022/11/13 03:01:03;;;;;;;12.30;8.70;;;;;;;8.93;83.79;101674.13;5012779;28;20219;-64
2022/11/13 03:03:31;;;;;;;12.93;7.73;;;;;;;8.98;83.42;101669.34;5015612;28;20204;-65
2022/11/13 03:06:18;;;;;;;11.70;7.53;;;;;;;9.01;83.39;101671.78;5014549;28;20656;-68
2022/11/13 03:08:46;;;;;;;12.63;8.07;;;;;;;9.06;83.42;101674.94;5006356;28;20242;-65
2022/11/13 03:11:14;;;;;;;12.00;7.83;;;;;;;9.02;83.20;101668.19;5008093;28;21121;-65
2022/11/13 03:13:41;;;;;;;16.17;9.13;;;;;;;8.97;83.72;101665.84;5010587;28;20286;-65
2022/11/13 03:16:13;;;;;;;14.30;8.87;;;;;;;8.95;83.94;101656.34;5006587;28;22013;-65
2022/11/13 03:18:43;;;;;;;12.73;8.33;;;;;;;8.90;84.45;101658.44;5007132;28;20759;-65
2022/11/13 03:21:13;;;;;;;17.93;8.17;;;;;;;8.96;84.61;101652.75;5020213;28;20215;-65
2022/11/13 03:23:43;;;;;;;13.73;8.30;;;;;;;8.98;83.99;101653.47;5017202;28;20246;-65
2022/11/13 03:26:15;;;;;;;13.63;8.03;;;;;;;9.02;83.95;101644.38;5009584;28;20248;-65
2022/11/13 03:28:43;;;;;;;12.80;7.90;;;;;;;9.01;83.76;101650.59;5009491;28;20213;-65
2022/11/13 03:31:12;;;;;;;14.23;7.63;;;;;;;9.02;83.26;101642.56;5004708;28;20224;-64
2022/11/13 03:33:40;;;;;;;11.63;8.00;;;;;;;8.98;83.51;101648.16;5009848;28;20617;-64
2022/11/13 03:36:08;;;;;;;12.77;8.33;;;;;;;9.01;83.70;101640.03;5015592;28;20250;-66
2022/11/13 03:38:36;;;;;;;13.17;8.20;;;;;;;9.02;83.56;101647.84;5013388;28;20227;-65
2022/11/13 03:41:04;;;;;;;13.23;7.37;;;;;;;9.04;83.71;101645.09;5015004;28;20218;-66
2022/11/13 03:43:32;;;;;;;15.07;8.50;;;;;;;8.95;84.01;101640.47;5012299;28;20207;-66
2022/11/13 03:46:00;;;;;;;13.50;8.53;;;;;;;9.01;84.06;101640.03;5008971;28;20228;-65
2022/11/13 03:48:29;;;;;;;11.90;8.27;;;;;;;9.00;84.37;101639.19;5013879;28;20622;-66
2022/11/13 03:50:57;;;;;;;12.77;8.13;;;;;;;8.96;84.61;101647.47;5009185;28;20249;-65
2022/11/13 03:53:25;;;;;;;13.73;8.67;;;;;;;8.91;85.04;101629.25;5008645;28;20216;-66
2022/11/13 03:55:53;;;;;;;13.63;8.50;;;;;;;8.96;85.27;101636.88;5006986;28;20658;-65
2022/11/13 03:58:20;;;;;;;13.77;8.70;;;;;;;8.97;85.27;101635.94;5008616;28;20616;-66
2022/11/13 04:00:48;;;;;;;14.33;8.97;;;;;;;8.98;84.97;101632.28;5009249;28;20258;-65
2022/11/13 04:03:16;;;;;;;12.27;8.20;;;;;;;9.06;84.47;101632.59;5012671;28;20212;-65
2022/11/13 04:05:48;;;;;;;13.47;7.43;;;;;;;9.01;84.40;101629.44;5006190;28;20279;-65
2022/11/13 04:08:16;;;;;;;12.80;7.10;;;;;;;9.02;84.52;101636.44;5005728;28;20266;-66
2022/11/13 04:10:44;;;;;;;13.40;7.70;;;;;;;9.02;83.79;101625.84;5008799;28;20251;-66
2022/11/13 04:13:12;;;;;;;12.50;6.80;;;;;;;9.06;83.51;101627.28;5008658;28;20213;-65
2022/11/13 04:15:40;;;;;;;11.27;6.60;;;;;;;9.07;82.57;101624.53;5013874;28;20212;-65
2022/11/13 04:18:07;;;;;;;10.47;7.00;;;;;;;9.06;82.57;101622.00;5010800;28;20654;-65
2022/11/13 04:20:35;;;;;;;11.87;6.57;;;;;;;9.03;82.44;101623.09;5009166;28;20645;-65
2022/11/13 04:23:06;;;;;;;13.57;7.37;;;;;;;8.97;83.10;101623.50;5010367;28;20212;-65
2022/11/13 04:25:34;;;;;;;13.67;6.83;;;;;;;9.00;82.88;101623.31;5011857;28;20268;-66
2022/11/13 04:28:01;;;;;;;9.97;6.43;;;;;;;9.02;82.54;101612.63;5010353;28;20231;-64
2022/11/13 04:30:29;;;;;;;10.33;6.90;;;;;;;9.02;82.78;101602.88;5010887;28;20259;-65
2022/11/13 04:32:57;;;;;;;12.10;8.20;;;;;;;8.94;83.32;101601.75;5013886;28;20245;-65
2022/11/13 04:35:24;;;;;;;11.57;7.10;;;;;;;8.94;83.43;101607.88;5015696;28;20232;-65
2022/11/13 04:37:52;;;;;;;13.17;7.63;;;;;;;8.90;83.79;101602.91;5017113;28;20841;-65
2022/11/13 04:40:21;;;;;;;12.13;7.63;;;;;;;8.99;83.72;101596.94;5012971;28;20211;-65
2022/11/13 04:42:48;;;;;;;13.97;8.20;;;;;;;8.99;83.10;101594.31;5016954;28;20223;-65
2022/11/13 04:45:17;;;;;;;18.67;8.20;;;;;;;8.98;83.14;101587.31;5010550;28;20224;-67
2022/11/13 04:47:45;;;;;;;11.60;7.50;;;;;;;8.89;83.41;101580.03;5015252;28;20246;-65
2022/11/13 04:50:14;;;;;;;11.47;7.80;;;;;;;8.87;83.67;101574.03;5016153;28;20278;-66
2022/11/13 04:52:43;;;;;;;12.67;7.73;;;;;;;8.90;83.79;101576.44;5021370;28;20208;-65
2022/11/13 04:55:11;;;;;;;13.27;8.07;;;;;;;8.91;83.72;101575.50;5014686;28;20223;-65
2022/11/13 04:57:41;;;;;;;18.00;8.17;;;;;;;8.93;83.58;101574.44;5011220;28;20216;-65
2022/11/13 05:00:10;;;;;;;13.83;8.43;;;;;;;8.94;83.44;101572.63;5010704;28;20228;-64
2022/11/13 05:02:38;;;;;;;14.80;8.73;;;;;;;8.96;83.48;101568.94;5010991;28;20762;-65
2022/11/13 05:05:06;;;;;;;12.60;7.70;;;;;;;8.95;83.59;101577.81;5014119;28;20231;-65
2022/11/13 05:07:33;;;;;;;15.27;9.00;;;;;;;8.92;83.82;101570.09;5010622;28;20239;-65
2022/11/13 05:10:01;;;;;;;13.37;8.33;;;;;;;8.96;83.79;101566.28;5009914;28;20240;-64
2022/11/13 05:12:29;;;;;;;18.47;8.37;;;;;;;8.97;83.71;101561.84;5012763;28;20224;-66
2022/11/13 05:14:58;;;;;;;13.70;8.70;;;;;;;8.94;83.90;101564.72;5008057;28;20208;-66
2022/11/13 05:17:25;;;;;;;14.67;9.40;;;;;;;8.92;84.28;101561.31;5009004;28;20209;-66
2022/11/13 05:19:53;;;;;;;15.33;9.40;;;;;;;8.88;84.86;101559.88;5006572;28;20216;-66
2022/11/13 05:22:21;;;;;;;17.57;8.60;;;;;;;8.90;84.65;101563.22;5011388;28;20212;-66
2022/11/13 05:24:48;;;;;;;31.83;8.73;;;;;;;8.86;84.85;101554.69;5007855;28;22350;-64
2022/11/13 05:27:16;;;;;;;14.73;9.07;;;;;;;8.89;84.60;101551.78;5009871;28;20227;-70
2022/11/13 05:29:44;;;;;;;13.50;8.30;;;;;;;8.95;84.26;101558.47;5005748;28;20270;-67
2022/11/13 05:32:16;;;;;;;18.37;8.73;;;;;;;8.98;83.84;101550.28;5012276;28;20208;-65
2022/11/13 05:34:44;;;;;;;14.07;9.03;;;;;;;8.99;83.48;101550.16;5013004;28;20213;-67
2022/11/13 05:37:11;;;;;;;12.30;7.77;;;;;;;8.99;83.44;101538.75;5013827;28;20660;-65
2022/11/13 05:39:39;;;;;;;12.17;8.07;;;;;;;9.02;83.27;101538.53;5015669;28;20227;-65
2022/11/13 05:42:07;;;;;;;20.33;8.57;;;;;;;8.98;82.76;101539.69;5016900;28;20221;-65
2022/11/13 05:44:34;;;;;;;16.23;8.37;;;;;;;8.82;83.66;101544.41;5012403;28;20216;-66
2022/11/13 05:47:02;;;;;;;12.97;8.40;;;;;;;8.77;84.78;101541.28;5013073;28;20238;-66
2022/11/13 05:49:31;;;;;;;17.73;8.83;;;;;;;8.74;85.03;101534.41;5012335;28;20209;-66
2022/11/13 05:51:59;;;;;;;16.73;8.37;;;;;;;8.73;84.87;101530.06;5013014;28;20261;-66
2022/11/13 05:54:27;;;;;;;11.97;7.97;;;;;;;8.78;84.63;101538.53;5012940;28;20216;-65
2022/11/13 05:56:54;;;;;;;19.50;9.63;;;;;;;8.83;84.54;101522.31;5010492;28;20224;-66
2022/11/13 05:59:22;;;;;;;13.90;7.83;;;;;;;8.82;84.40;101523.25;5015654;28;20245;-66
2022/11/13 06:01:50;;;;;;;13.00;8.60;;;;;;;8.82;84.43;101518.81;5009205;28;20216;-65
2022/11/13 06:04:17;;;;;;;13.23;8.13;;;;;;;8.83;84.33;101519.66;5013573;28;20579;-66
2022/11/13 06:06:46;;;;;;;16.20;9.00;;;;;;;8.88;83.72;101513.06;5005604;28;20696;-66
2022/11/13 06:09:16;;;;;;;14.37;8.50;;;;;;;8.88;83.28;101517.53;5008257;28;20249;-66
2022/11/13 06:11:44;;;;;;;14.30;8.83;;;;;;;8.93;83.05;101510.94;5006174;28;20544;-66
2022/11/13 06:14:11;;;;;;;14.37;8.23;;;;;;;8.90;82.71;101505.88;5010289;28;20220;-65
2022/11/13 06:16:39;;;;;;;12.00;8.00;;;;;;;8.92;82.95;101508.41;5008799;28;20219;-65
2022/11/13 06:19:09;;;;;;;15.60;8.57;;;;;;;8.86;83.24;101500.94;5013086;28;20216;-65
2022/11/13 06:21:38;;;;;;;15.80;9.30;;;;;;;8.84;83.28;101502.84;5008230;28;20239;-66
2022/11/13 06:24:08;;;;;;;15.10;8.73;;;;;;;8.84;83.43;101503.69;5019403;28;20551;-66
2022/11/13 06:26:37;;;;;;;15.77;8.43;;;;;;;8.86;83.22;101498.28;5011501;28;20280;-66
2022/11/13 06:29:07;;;;;;;14.60;8.80;;;;;;;8.85;83.12;101500.09;5017942;28;20228;-65
2022/11/13 06:31:36;;;;;;;15.43;9.07;;;;;;;8.85;83.43;101501.88;5013739;28;20720;-64
2022/11/13 06:34:05;;;;;;;11.67;8.40;;;;;;;8.85;83.11;101501.88;5017300;28;20210;-65
2022/11/13 06:36:35;;;;;;;14.80;8.33;;;;;;;8.81;83.41;101500.41;5010936;28;20217;-64
2022/11/13 06:39:07;;;;;;;13.77;8.80;;;;;;;8.76;83.45;101499.91;5014806;28;20216;-65
2022/11/13 06:41:35;;;;;;;13.93;9.07;;;;;;;8.77;83.67;101502.44;5010091;28;20215;-65
2022/11/13 06:44:03;;;;;;;31.60;9.10;;;;;;;8.77;83.90;101493.66;5014757;28;20211;-65
2022/11/13 06:46:31;;;;;;;16.03;8.67;;;;;;;8.78;83.49;101490.06;5012575;28;20216;-66
2022/11/13 06:48:59;;;;;;;14.70;8.47;;;;;;;8.78;83.40;101485.63;5008595;28;20251;-65
2022/11/13 06:51:28;;;;;;;21.30;8.20;;;;;;;8.74;83.03;101486.78;5015035;28;20243;-66
2022/11/13 06:53:57;;;;;;;14.33;8.37;;;;;;;8.75;82.98;101483.19;5012844;28;20219;-66
2022/11/13 06:56:26;;;;;;;13.43;8.50;;;;;;;8.64;83.22;101483.13;5013025;28;20214;-66
2022/11/13 06:58:54;;;;;;;16.20;8.00;;;;;;;8.65;83.17;101477.72;5011590;28;20218;-66
2022/11/13 07:01:24;;;;;;;11.07;7.10;;;;;;;8.68;82.81;101485.44;5011113;28;20543;-66
2022/11/13 07:03:52;;;;;;;12.07;7.77;;;;;;;8.62;83.23;101475.28;5011045;28;20293;-68
2022/11/13 07:06:21;;;;;;;18.27;8.40;;;;;;;8.63;83.70;101482.28;5012099;28;20234;-66
2022/11/13 07:08:49;;;;;;;17.37;7.87;;;;;;;8.59;83.20;101486.13;5009370;28;20713;-66
2022/11/13 07:11:19;;;;;;;12.20;7.60;;;;;;;8.64;83.41;101477.84;5005444;28;20240;-66
2022/11/13 07:13:48;;;;;;;12.83;8.30;;;;;;;8.73;82.87;101476.31;5007081;28;20215;-66
2022/11/13 07:16:17;;;;;;;12.97;8.07;;;;;;;8.75;82.08;101474.41;5009025;28;20266;-66
2022/11/13 07:18:50;;;;;;;17.40;8.30;;;;;;;8.75;81.79;101469.13;5006755;28;20215;-65
2022/11/13 07:21:17;;;;;;;13.20;7.13;;;;;;;8.67;81.81;101464.41;5008580;28;20206;-65
2022/11/13 07:23:48;;;;;;;16.00;8.10;;;;;;;8.67;81.72;101459.97;5015664;28;20268;-64
2022/11/13 07:26:16;;;;;;;14.00;8.10;;;;;;;8.61;81.66;101457.78;5016105;28;20610;-66
2022/11/13 07:28:44;;;;;;;15.77;7.43;;;;;;;8.66;81.43;101460.91;5012933;28;20586;-65
2022/11/13 07:31:14;;;;;;;11.53;7.70;;;;;;;8.62;81.62;101459.44;5017960;28;20248;-65
2022/11/13 07:33:42;;;;;;;18.40;8.00;;;;;;;8.65;81.71;101459.22;5014726;28;20207;-65
2022/11/13 07:36:10;;;;;;;18.77;7.47;;;;;;;8.64;81.47;101462.81;5017520;28;20227;-65
2022/11/13 07:38:38;;;;;;;12.47;7.83;;;;;;;8.65;81.72;101463.66;5015823;28;20262;-65
2022/11/13 07:41:07;;;;;;;12.97;6.87;;;;;;;8.57;81.77;101469.50;5013521;28;20205;-65
2022/11/13 07:43:34;;;;;;;15.13;8.93;;;;;;;8.61;81.80;101463.06;5015043;28;20219;-65
2022/11/13 07:46:02;;;;;;;14.30;8.50;;;;;;;8.64;81.73;101461.97;5011119;28;20285;-64
2022/11/13 07:48:31;;;;;;;19.63;8.10;;;;;;;8.73;81.33;101471.03;5007396;28;20258;-64
2022/11/13 07:51:01;;;;;;;12.77;8.30;;;;;;;8.74;81.22;101470.06;5008597;28;20583;-67
2022/11/13 07:53:29;;;;;;;29.43;8.37;;;;;;;8.64;81.48;101472.53;5005882;28;20215;-66
2022/11/13 07:56:00;;;;;;;20.27;7.73;;;;;;;8.65;81.81;101475.09;5007405;28;20218;-66
2022/11/13 07:58:28;;;;;;;22.80;8.60;;;;;;;8.67;81.75;101475.81;5010002;28;20205;-67
2022/11/13 08:01:02;;;;;;;13.27;7.20;;;;;;;8.74;81.61;101476.22;5017795;28;20220;-66
2022/11/13 08:03:31;;;;;;;13.20;8.17;;;;;;;8.76;81.33;101470.81;5016526;28;20223;-67
2022/11/13 08:06:03;;;;;;;12.17;8.00;;;;;;;8.78;81.71;101466.25;5014700;28;20961;-66
2022/11/13 08:08:31;;;;;;;17.73;8.27;;;;;;;8.79;81.48;101467.97;5016927;28;20216;-66
2022/11/13 08:11:04;;;;;;;17.60;8.20;;;;;;;8.83;81.33;101469.41;5023728;28;20246;-66
2022/11/13 08:13:33;;;;;;;24.37;8.97;;;;;;;8.82;81.61;101470.34;5019161;28;20204;-66
2022/11/13 08:16:01;;;;;;;14.43;8.20;;;;;;;8.87;81.34;101469.09;5011083;28;20218;-66
2022/11/13 08:18:31;;;;;;;12.53;8.40;;;;;;;8.79;80.83;101468.81;5010288;28;20212;-66
2022/11/13 08:21:01;;;;;;;13.63;8.07;;;;;;;8.78;81.18;101460.97;5009210;28;20254;-66
2022/11/13 08:23:29;;;;;;;13.10;8.13;;;;;;;8.83;80.80;101464.97;5015849;28;20883;-66
2022/11/13 08:25:57;;;;;;;18.90;9.57;;;;;;;8.84;81.02;101471.94;5013850;28;20209;-63
2022/11/13 08:28:24;;;;;;;18.47;10.00;;;;;;;8.84;81.20;101463.16;5017700;28;20236;-66
2022/11/13 08:30:52;;;;;;;16.17;9.33;;;;;;;8.83;81.54;101461.47;5015057;28;20212;-66
2022/11/13 08:33:20;;;;;;;26.23;9.40;;;;;;;8.87;81.46;101458.50;5024563;28;20224;-66
2022/11/13 08:35:54;;;;;;;18.93;9.27;;;;;;;8.90;81.29;101460.91;5016771;28;20620;-66
2022/11/13 08:38:22;;;;;;;24.77;9.37;;;;;;;8.90;81.29;101452.13;5014440;28;21137;-66
2022/11/13 08:40:50;;;;;;;14.57;9.03;;;;;;;8.89;81.42;101453.91;5011651;28;20307;-66
2022/11/13 08:43:18;;;;;;;19.77;9.50;;;;;;;8.94;80.70;101443.00;5012544;28;20242;-66
2022/11/13 08:45:46;;;;;;;15.57;9.47;;;;;;;8.92;81.09;101444.91;5015394;28;20208;-66
2022/11/13 08:48:14;;;;;;;13.23;9.23;;;;;;;8.99;80.75;101441.69;5016484;28;20205;-66
2022/11/13 08:50:42;;;;;;;14.10;9.30;;;;;;;9.11;80.39;101441.75;5019700;28;20228;-66
2022/11/13 08:53:11;;;;;;;15.27;9.03;;;;;;;9.27;79.38;101440.47;5015494;28;20212;-67
2022/11/13 08:55:38;;;;;;;17.67;9.23;;;;;;;9.38;79.04;101427.28;5012083;28;20223;-67
2022/11/13 08:58:06;;;;;;;14.03;8.97;;;;;;;9.52;78.36;101428.00;5014148;28;20223;-64
2022/11/13 09:00:34;;;;;;;14.27;9.10;;;;;;;9.60;77.60;101426.44;5010051;28;20724;-64
2022/11/13 09:03:02;;;;;;;15.83;9.53;;;;;;;9.70;77.31;101416.00;5015689;28;20209;-65
2022/11/13 09:05:29;;;;;;;14.20;9.10;;;;;;;10.35;76.36;101415.28;5017628;28;20214;-64
2022/11/13 09:07:58;;;;;;;16.70;10.00;;;;;;;13.49;65.15;101416.88;5017834;28;20692;-65
2022/11/13 09:10:28;;;;;;;15.97;8.93;;;;;;;16.73;53.42;101410.75;5010143;28;20332;-65
2022/11/13 09:12:57;;;;;;;12.20;7.83;;;;;;;19.79;44.49;101405.16;5010908;28;20213;-65
2022/11/13 09:15:25;;;;;;;12.27;8.13;;;;;;;20.90;41.63;101399.41;5017627;28;20224;-65
2022/11/13 09:17:56;;;;;;;10.20;7.80;;;;;;;20.49;41.63;101394.63;5012441;28;20263;-64
2022/11/13 09:20:24;;;;;;;8.93;6.63;;;;;;;19.92;42.72;101395.38;5010070;28;20202;-64
2022/11/13 09:22:59;;;;;;;9.63;7.30;;;;;;;19.28;43.75;101394.19;5013702;28;20215;-65
2022/11/13 09:25:30;;;;;;;9.70;7.03;;;;;;;18.46;45.66;101384.25;5010415;28;20208;-65
2022/11/13 09:28:04;;;;;;;7.60;6.53;;;;;;;18.72;45.49;101392.81;5014258;28;20197;-67
2022/11/13 09:30:32;;;;;;;7.57;5.90;;;;;;;19.06;44.43;101389.69;5014786;28;20278;-66
2022/11/13 09:33:03;;;;;;;9.03;6.27;;;;;;;19.69;43.78;101391.97;5014880;28;20621;-66
2022/11/13 09:35:35;;;;;;;8.03;5.80;;;;;;;20.81;41.68;101387.94;5020895;28;20223;-66
2022/11/13 09:38:06;;;;;;;6.97;5.70;;;;;;;21.12;40.55;101371.41;5011145;28;20225;-66
2022/11/13 09:40:43;;;;;;;9.60;6.20;;;;;;;21.12;40.75;101378.66;5014014;28;20208;-67
2022/11/13 09:43:23;;;;;;;8.90;6.23;;;;;;;20.28;41.31;101378.44;5012872;28;20228;-67
2022/11/13 09:45:56;;;;;;;7.80;6.23;;;;;;;18.75;44.57;101379.84;5015153;28;20283;-66
2022/11/13 09:48:30;;;;;;;7.83;6.10;;;;;;;17.21;48.16;101382.31;5013187;28;20213;-67
2022/11/13 09:51:04;;;;;;;7.63;5.70;;;;;;;16.04;50.97;101382.44;5008523;28;20316;-69
2022/11/13 09:53:39;;;;;;;7.10;5.20;;;;;;;15.22;54.20;101385.63;5007978;28;20210;-67
2022/11/13 09:56:27;;;;;;;9.00;6.10;;;;;;;14.69;56.17;101369.66;5013581;28;20216;-66
2022/11/13 09:59:06;;;;;;;7.07;5.40;;;;;;;14.44;57.77;101360.59;5011075;28;20743;-65
2022/11/13 10:01:49;;;;;;;6.67;5.37;;;;;;;14.65;58.17;101353.13;5009585;28;20204;-68
2022/11/13 10:04:29;;;;;;;7.77;5.80;;;;;;;16.68;53.01;101346.16;5009126;28;20254;-64
2022/11/13 10:07:19;;;;;;;7.10;5.73;;;;;;;19.04;46.08;101335.28;5008927;28;20201;-66
2022/11/13 10:10:01;;;;;;;8.50;6.70;;;;;;;19.25;44.98;101335.41;5006919;28;20245;-68
2022/11/13 10:12:32;;;;;;;7.80;5.90;;;;;;;19.83;43.30;101331.91;5015637;28;20873;-61
2022/11/13 10:15:03;;;;;;;10.23;6.03;;;;;;;20.92;41.32;101321.88;5012133;28;20208;-62
2022/11/13 10:17:37;;;;;;;10.73;6.23;;;;;;;22.58;38.16;101313.56;5011072;28;21220;-61
2022/11/13 10:20:12;;;;;;;7.87;6.20;;;;;;;22.24;38.21;101306.44;5007929;28;20640;-63
2022/11/13 10:22:47;;;;;;;7.67;6.00;;;;;;;21.47;39.24;101293.22;5009751;28;20204;-62
2022/11/13 10:25:18;;;;;;;7.87;5.97;;;;;;;19.66;43.10;101281.16;5017632;28;20216;-62
2022/11/13 10:27:54;;;;;;;7.67;5.53;;;;;;;18.74;45.03;101275.25;5014711;28;20207;-63
2022/11/13 10:30:22;;;;;;;9.13;5.83;;;;;;;18.74;46.14;101268.00;5011958;28;20256;-62
2022/11/13 10:32:50;;;;;;;6.10;5.10;;;;;;;18.81;45.81;101259.25;5018455;28;20204;-63
2022/11/13 10:35:33;;;;;;;8.47;6.13;;;;;;;18.94;46.04;101256.75;5019496;28;20209;-62
2022/11/13 10:38:04;;;;;;;9.25;5.68;;;;;;;19.23;45.61;101261.31;5013684;28;20205;-65
2022/11/13 10:40:38;;;;;;;7.45;5.45;;;;;;;19.39;45.21;101258.44;5009252;28;20200;-62
2022/11/13 10:43:14;;;;;;;7.28;5.90;;;;;;;19.62;44.59;101231.44;5014987;28;20209;-62
2022/11/13 10:45:43;;;;;;;7.70;6.13;;;;;;;18.76;46.35;101230.22;5007615;28;20208;-63
2022/11/13 10:48:20;;;;;;;7.15;5.82;;;;;;;17.74;48.65;101225.28;5015603;28;20205;-61
2022/11/13 10:50:56;;;;;;;9.10;5.70;;;;;;;17.38;49.11;101230.31;5020307;28;20559;-62
2022/11/13 10:53:26;;;;;;;7.80;5.77;;;;;;;17.10;50.47;101224.53;5015201;28;20292;-61
2022/11/13 10:55:56;;;;;;;8.83;6.30;;;;;;;17.05;51.52;101222.38;5011019;28;20209;-64
2022/11/13 10:58:26;;;;;;;8.53;6.53;;;;;;;17.49;50.60;101221.88;5012800;28;20267;-62
2022/11/13 11:00:54;;;;;;;9.70;6.07;;;;;;;17.82;48.65;101219.88;5015625;28;20211;-61
2022/11/13 11:03:28;;;;;;;7.17;6.03;;;;;;;18.00;48.77;101215.91;5019716;28;20307;-61
2022/11/13 11:06:00;;;;;;;8.60;5.97;;;;;;;18.41;47.60;101219.09;5019196;28;20647;-61
2022/11/13 11:08:31;;;;;;;7.40;5.83;;;;;;;19.84;44.21;101217.84;5021287;28;20603;-62
2022/11/13 11:13:48;;;;;;;6.93;4.93;;;;;;;22.81;38.39;101212.09;5017891;28;20220;-62
2022/11/13 11:16:21;;;;;;;7.38;5.80;;;;;;;24.13;35.94;101205.31;5017140;28;20449;-66
2022/11/13 11:18:54;;;;;;;10.35;6.07;;;;;;;25.14;34.49;101196.94;5019216;28;20212;-65
2022/11/13 11:21:26;;;;;;;8.45;5.60;;;;;;;25.67;33.53;101192.53;5014073;28;20209;-64
2022/11/13 11:24:04;;;;;;;8.25;5.82;;;;;;;24.47;34.76;101190.47;5011300;28;20666;-65
2022/11/13 11:26:37;;;;;;;10.13;5.82;;;;;;;23.95;35.73;101185.22;5011403;28;20318;-63
2022/11/13 11:29:16;;;;;;;7.80;5.78;;;;;;;23.05;36.87;101185.41;5012287;28;20648;-65
2022/11/13 11:31:50;;;;;;;7.32;5.15;;;;;;;21.58;39.44;101187.41;5009258;28;20243;-64
2022/11/13 11:34:22;;;;;;;7.55;5.82;;;;;;;20.39;41.37;101192.09;5012045;28;20234;-65
2022/11/13 11:36:58;;;;;;;8.55;6.35;;;;;;;19.89;43.23;101185.78;5012463;28;20635;-65
2022/11/13 11:39:29;;;;;;;10.25;6.15;;;;;;;19.78;43.47;101177.41;5008365;28;20201;-65